sensor_id;sensor_type;location;lat;lon;timestamp;temperature;humidity
58582;DHT22;44361;51.476;5.700;2023-07-22T00:00:17;15.20;99.90
58582;DHT22;44361;51.476;5.700;2023-07-22T00:02:43;15.10;99.90
58582;DHT22;44361;51.476;5.700;2023-07-22T00:05:10;15.10;99.90
58582;DHT22;44361;51.476;5.700;2023-07-22T00:07:36;15.10;99.90
58582;DHT22;44361;51.476;5.700;2023-07-22T00:10:02;15.10;99.90
58582;DHT22;44361;51.476;5.700;2023-07-22T00:12:28;15.00;99.90
58582;DHT22;44361;51.476;5.700;2023-07-22T00:14:53;15.00;99.90
58582;DHT22;44361;51.476;5.700;2023-07-22T00:17:19;15.00;99.90
58582;DHT22;44361;51.476;5.700;2023-07-22T00:19:47;15.00;99.90
58582;DHT22;44361;51.476;5.700;2023-07-22T00:22:13;15.00;99.90
58582;DHT22;44361;51.476;5.700;2023-07-22T00:24:40;15.00;99.90
58582;DHT22;44361;51.476;5.700;2023-07-22T00:27:06;15.10;99.90
58582;DHT22;44361;51.476;5.700;2023-07-22T00:29:34;15.10;99.90
58582;DHT22;44361;51.476;5.700;2023-07-22T00:31:59;15.00;99.90
58582;DHT22;44361;51.476;5.700;2023-07-22T00:34:25;15.00;99.90
58582;DHT22;44361;51.476;5.700;2023-07-22T00:36:51;15.00;99.90
58582;DHT22;44361;51.476;5.700;2023-07-22T00:39:17;15.00;99.90
58582;DHT22;44361;51.476;5.700;2023-07-22T00:41:43;15.00;99.90
58582;DHT22;44361;51.476;5.700;2023-07-22T00:44:11;14.90;99.90
58582;DHT22;44361;51.476;5.700;2023-07-22T00:46:38;15.00;99.90
58582;DHT22;44361;51.476;5.700;2023-07-22T00:49:05;15.00;99.90
58582;DHT22;44361;51.476;5.700;2023-07-22T00:51:32;15.00;99.90
58582;DHT22;44361;51.476;5.700;2023-07-22T00:53:57;15.00;99.90
58582;DHT22;44361;51.476;5.700;2023-07-22T00:56:23;15.00;99.90
58582;DHT22;44361;51.476;5.700;2023-07-22T00:58:49;15.00;99.90
58582;DHT22;44361;51.476;5.700;2023-07-22T01:01:14;15.00;99.90
58582;DHT22;44361;51.476;5.700;2023-07-22T01:03:40;15.00;99.90
58582;DHT22;44361;51.476;5.700;2023-07-22T01:06:06;15.00;99.90
58582;DHT22;44361;51.476;5.700;2023-07-22T01:08:32;15.00;99.90
58582;DHT22;44361;51.476;5.700;2023-07-22T01:10:58;14.90;99.90
58582;DHT22;44361;51.476;5.700;2023-07-22T01:13:24;15.00;99.90
58582;DHT22;44361;51.476;5.700;2023-07-22T01:15:50;14.90;99.90
58582;DHT22;44361;51.476;5.700;2023-07-22T01:18:16;14.90;99.90
58582;DHT22;44361;51.476;5.700;2023-07-22T01:20:42;14.90;99.90
58582;DHT22;44361;51.476;5.700;2023-07-22T01:23:08;14.80;99.90
58582;DHT22;44361;51.476;5.700;2023-07-22T01:25:34;14.80;99.90
58582;DHT22;44361;51.476;5.700;2023-07-22T01:28:00;14.80;99.90
58582;DHT22;44361;51.476;5.700;2023-07-22T01:30:25;14.80;99.90
58582;DHT22;44361;51.476;5.700;2023-07-22T01:32:53;14.80;99.90
58582;DHT22;44361;51.476;5.700;2023-07-22T01:35:18;14.80;99.90
58582;DHT22;44361;51.476;5.700;2023-07-22T01:37:44;14.80;99.90
58582;DHT22;44361;51.476;5.700;2023-07-22T01:40:11;14.70;99.90
58582;DHT22;44361;51.476;5.700;2023-07-22T01:42:40;14.70;99.90
58582;DHT22;44361;51.476;5.700;2023-07-22T01:45:07;14.70;99.90
58582;DHT22;44361;51.476;5.700;2023-07-22T01:47:36;14.60;99.90
58582;DHT22;44361;51.476;5.700;2023-07-22T01:50:04;14.60;99.90
58582;DHT22;44361;51.476;5.700;2023-07-22T01:52:30;14.60;99.90
58582;DHT22;44361;51.476;5.700;2023-07-22T01:54:55;14.60;99.90
58582;DHT22;44361;51.476;5.700;2023-07-22T01:57:21;14.50;99.90
58582;DHT22;44361;51.476;5.700;2023-07-22T01:59:46;14.50;99.90
58582;DHT22;44361;51.476;5.700;2023-07-22T02:02:12;14.60;99.90
58582;DHT22;44361;51.476;5.700;2023-07-22T02:04:37;14.50;99.90
58582;DHT22;44361;51.476;5.700;2023-07-22T02:07:03;14.50;99.90
58582;DHT22;44361;51.476;5.700;2023-07-22T02:09:29;14.50;99.90
58582;DHT22;44361;51.476;5.700;2023-07-22T02:11:54;14.50;99.90
58582;DHT22;44361;51.476;5.700;2023-07-22T02:14:20;14.50;99.90
58582;DHT22;44361;51.476;5.700;2023-07-22T02:16:45;14.50;99.90
58582;DHT22;44361;51.476;5.700;2023-07-22T02:19:11;14.50;99.90
58582;DHT22;44361;51.476;5.700;2023-07-22T02:21:36;14.50;99.90
58582;DHT22;44361;51.476;5.700;2023-07-22T02:24:02;14.50;99.90
58582;DHT22;44361;51.476;5.700;2023-07-22T02:26:28;14.50;99.90
58582;DHT22;44361;51.476;5.700;2023-07-22T02:28:53;14.60;99.90
58582;DHT22;44361;51.476;5.700;2023-07-22T02:31:20;14.60;99.90
58582;DHT22;44361;51.476;5.700;2023-07-22T02:33:47;14.50;99.90
58582;DHT22;44361;51.476;5.700;2023-07-22T02:36:13;14.40;99.90
58582;DHT22;44361;51.476;5.700;2023-07-22T02:38:38;14.40;99.90
58582;DHT22;44361;51.476;5.700;2023-07-22T02:41:05;14.40;99.90
58582;DHT22;44361;51.476;5.700;2023-07-22T02:43:35;14.40;99.90
58582;DHT22;44361;51.476;5.700;2023-07-22T02:46:02;14.40;99.90
58582;DHT22;44361;51.476;5.700;2023-07-22T02:48:29;14.30;99.90
58582;DHT22;44361;51.476;5.700;2023-07-22T02:51:05;14.30;99.90
58582;DHT22;44361;51.476;5.700;2023-07-22T02:53:31;14.30;99.90
58582;DHT22;44361;51.476;5.700;2023-07-22T02:55:58;14.20;99.90
58582;DHT22;44361;51.476;5.700;2023-07-22T02:58:24;14.20;99.90
58582;DHT22;44361;51.476;5.700;2023-07-22T03:00:49;14.20;99.90
58582;DHT22;44361;51.476;5.700;2023-07-22T03:03:15;14.20;99.90
58582;DHT22;44361;51.476;5.700;2023-07-22T03:05:40;14.20;99.90
58582;DHT22;44361;51.476;5.700;2023-07-22T03:08:06;14.10;99.90
58582;DHT22;44361;51.476;5.700;2023-07-22T03:10:32;14.00;99.90
58582;DHT22;44361;51.476;5.700;2023-07-22T03:12:58;13.90;99.90
58582;DHT22;44361;51.476;5.700;2023-07-22T03:15:25;13.90;99.90
58582;DHT22;44361;51.476;5.700;2023-07-22T03:17:54;13.80;99.90
58582;DHT22;44361;51.476;5.700;2023-07-22T03:20:21;13.70;99.90
58582;DHT22;44361;51.476;5.700;2023-07-22T03:22:47;13.60;99.90
58582;DHT22;44361;51.476;5.700;2023-07-22T03:25:14;13.50;99.90
58582;DHT22;44361;51.476;5.700;2023-07-22T03:27:45;13.40;99.90
58582;DHT22;44361;51.476;5.700;2023-07-22T03:30:13;13.30;99.90
58582;DHT22;44361;51.476;5.700;2023-07-22T03:32:46;13.20;99.90
58582;DHT22;44361;51.476;5.700;2023-07-22T03:35:13;13.20;99.90
58582;DHT22;44361;51.476;5.700;2023-07-22T03:37:39;13.10;99.90
58582;DHT22;44361;51.476;5.700;2023-07-22T03:40:05;13.00;99.90
58582;DHT22;44361;51.476;5.700;2023-07-22T03:42:40;13.10;99.90
58582;DHT22;44361;51.476;5.700;2023-07-22T03:45:07;13.10;99.90
58582;DHT22;44361;51.476;5.700;2023-07-22T03:47:33;13.00;99.90
58582;DHT22;44361;51.476;5.700;2023-07-22T03:49:59;13.00;99.90
58582;DHT22;44361;51.476;5.700;2023-07-22T03:52:25;13.00;99.90
58582;DHT22;44361;51.476;5.700;2023-07-22T03:54:50;12.90;99.90
58582;DHT22;44361;51.476;5.700;2023-07-22T03:57:16;12.90;99.90
58582;DHT22;44361;51.476;5.700;2023-07-22T03:59:41;12.90;99.90
58582;DHT22;44361;51.476;5.700;2023-07-22T04:02:07;12.90;99.90
58582;DHT22;44361;51.476;5.700;2023-07-22T04:04:33;12.90;99.90
58582;DHT22;44361;51.476;5.700;2023-07-22T04:06:58;12.90;99.90
58582;DHT22;44361;51.476;5.700;2023-07-22T04:09:24;12.90;99.90
58582;DHT22;44361;51.476;5.700;2023-07-22T04:11:52;13.00;99.90
58582;DHT22;44361;51.476;5.700;2023-07-22T04:14:17;13.00;99.90
58582;DHT22;44361;51.476;5.700;2023-07-22T04:16:43;13.00;99.90
58582;DHT22;44361;51.476;5.700;2023-07-22T04:19:08;13.00;99.90
58582;DHT22;44361;51.476;5.700;2023-07-22T04:21:34;13.10;99.90
58582;DHT22;44361;51.476;5.700;2023-07-22T04:24:00;13.10;99.90
58582;DHT22;44361;51.476;5.700;2023-07-22T04:26:25;13.10;99.90
58582;DHT22;44361;51.476;5.700;2023-07-22T04:28:51;13.10;99.90
58582;DHT22;44361;51.476;5.700;2023-07-22T04:31:16;13.10;99.90
58582;DHT22;44361;51.476;5.700;2023-07-22T04:33:42;13.20;99.90
58582;DHT22;44361;51.476;5.700;2023-07-22T04:36:07;13.20;99.90
58582;DHT22;44361;51.476;5.700;2023-07-22T04:38:33;13.30;99.90
58582;DHT22;44361;51.476;5.700;2023-07-22T04:40:59;13.20;99.90
58582;DHT22;44361;51.476;5.700;2023-07-22T04:43:27;13.30;99.90
58582;DHT22;44361;51.476;5.700;2023-07-22T04:45:52;13.30;99.90
58582;DHT22;44361;51.476;5.700;2023-07-22T04:48:20;13.40;99.90
58582;DHT22;44361;51.476;5.700;2023-07-22T04:50:46;13.40;99.90
58582;DHT22;44361;51.476;5.700;2023-07-22T04:53:12;13.40;99.90
58582;DHT22;44361;51.476;5.700;2023-07-22T04:55:41;13.50;99.90
58582;DHT22;44361;51.476;5.700;2023-07-22T04:58:07;13.60;99.90
58582;DHT22;44361;51.476;5.700;2023-07-22T05:00:33;13.70;99.90
58582;DHT22;44361;51.476;5.700;2023-07-22T05:02:59;13.80;99.90
58582;DHT22;44361;51.476;5.700;2023-07-22T05:05:24;14.00;99.90
58582;DHT22;44361;51.476;5.700;2023-07-22T05:07:50;14.30;99.90
58582;DHT22;44361;51.476;5.700;2023-07-22T05:10:16;14.70;99.90
58582;DHT22;44361;51.476;5.700;2023-07-22T05:12:42;14.90;99.90
58582;DHT22;44361;51.476;5.700;2023-07-22T05:15:11;15.50;99.90
58582;DHT22;44361;51.476;5.700;2023-07-22T05:17:36;16.20;99.90
58582;DHT22;44361;51.476;5.700;2023-07-22T05:20:02;16.20;99.90
58582;DHT22;44361;51.476;5.700;2023-07-22T05:22:31;15.90;99.90
58582;DHT22;44361;51.476;5.700;2023-07-22T05:24:57;15.60;99.90
58582;DHT22;44361;51.476;5.700;2023-07-22T05:27:22;15.40;99.90
58582;DHT22;44361;51.476;5.700;2023-07-22T05:29:48;15.40;99.90
58582;DHT22;44361;51.476;5.700;2023-07-22T05:32:13;15.40;99.90
58582;DHT22;44361;51.476;5.700;2023-07-22T05:34:39;15.40;99.90
58582;DHT22;44361;51.476;5.700;2023-07-22T05:37:05;15.40;99.90
58582;DHT22;44361;51.476;5.700;2023-07-22T05:39:30;15.40;99.90
58582;DHT22;44361;51.476;5.700;2023-07-22T05:41:56;15.40;99.90
58582;DHT22;44361;51.476;5.700;2023-07-22T05:44:21;15.50;99.90
58582;DHT22;44361;51.476;5.700;2023-07-22T05:46:47;15.50;99.90
58582;DHT22;44361;51.476;5.700;2023-07-22T05:49:13;15.60;99.90
58582;DHT22;44361;51.476;5.700;2023-07-22T05:51:38;15.70;99.90
58582;DHT22;44361;51.476;5.700;2023-07-22T05:54:04;15.80;99.90
58582;DHT22;44361;51.476;5.700;2023-07-22T05:56:30;16.20;99.90
58582;DHT22;44361;51.476;5.700;2023-07-22T05:58:55;16.30;99.90
58582;DHT22;44361;51.476;5.700;2023-07-22T06:01:21;16.50;99.90
58582;DHT22;44361;51.476;5.700;2023-07-22T06:03:47;17.00;99.90
58582;DHT22;44361;51.476;5.700;2023-07-22T06:06:13;17.00;99.90
58582;DHT22;44361;51.476;5.700;2023-07-22T06:08:39;16.80;99.90
58582;DHT22;44361;51.476;5.700;2023-07-22T06:11:04;16.70;99.90
58582;DHT22;44361;51.476;5.700;2023-07-22T06:13:30;16.80;99.90
58582;DHT22;44361;51.476;5.700;2023-07-22T06:15:56;16.80;99.90
58582;DHT22;44361;51.476;5.700;2023-07-22T06:18:21;16.80;99.90
58582;DHT22;44361;51.476;5.700;2023-07-22T06:20:47;16.70;99.90
58582;DHT22;44361;51.476;5.700;2023-07-22T06:23:13;16.60;99.90
58582;DHT22;44361;51.476;5.700;2023-07-22T06:25:38;16.70;99.90
58582;DHT22;44361;51.476;5.700;2023-07-22T06:28:04;16.70;99.90
58582;DHT22;44361;51.476;5.700;2023-07-22T06:30:30;16.90;99.90
58582;DHT22;44361;51.476;5.700;2023-07-22T06:32:55;17.50;99.90
58582;DHT22;44361;51.476;5.700;2023-07-22T06:35:21;18.00;99.90
58582;DHT22;44361;51.476;5.700;2023-07-22T06:37:47;18.70;99.90
58582;DHT22;44361;51.476;5.700;2023-07-22T06:40:12;18.80;99.90
58582;DHT22;44361;51.476;5.700;2023-07-22T06:42:38;18.70;99.90
58582;DHT22;44361;51.476;5.700;2023-07-22T06:45:04;18.30;99.90
58582;DHT22;44361;51.476;5.700;2023-07-22T06:47:30;18.30;99.90
58582;DHT22;44361;51.476;5.700;2023-07-22T06:49:56;18.00;99.90
58582;DHT22;44361;51.476;5.700;2023-07-22T06:52:21;17.80;99.90
58582;DHT22;44361;51.476;5.700;2023-07-22T06:54:47;17.80;99.90
58582;DHT22;44361;51.476;5.700;2023-07-22T06:57:12;17.80;99.90
58582;DHT22;44361;51.476;5.700;2023-07-22T06:59:38;17.80;99.90
58582;DHT22;44361;51.476;5.700;2023-07-22T07:02:04;18.00;99.90
58582;DHT22;44361;51.476;5.700;2023-07-22T07:04:33;18.50;99.90
58582;DHT22;44361;51.476;5.700;2023-07-22T07:06:59;18.70;99.90
58582;DHT22;44361;51.476;5.700;2023-07-22T07:09:24;18.70;99.90
58582;DHT22;44361;51.476;5.700;2023-07-22T07:11:51;18.50;99.90
58582;DHT22;44361;51.476;5.700;2023-07-22T07:14:17;18.30;99.90
58582;DHT22;44361;51.476;5.700;2023-07-22T07:16:43;18.60;99.90
58582;DHT22;44361;51.476;5.700;2023-07-22T07:19:09;19.20;99.90
58582;DHT22;44361;51.476;5.700;2023-07-22T07:21:35;19.40;99.90
58582;DHT22;44361;51.476;5.700;2023-07-22T07:24:00;19.50;99.90
58582;DHT22;44361;51.476;5.700;2023-07-22T07:26:27;19.70;99.90
58582;DHT22;44361;51.476;5.700;2023-07-22T07:28:52;19.90;99.90
58582;DHT22;44361;51.476;5.700;2023-07-22T07:31:18;20.10;99.90
58582;DHT22;44361;51.476;5.700;2023-07-22T07:33:43;20.30;99.90
58582;DHT22;44361;51.476;5.700;2023-07-22T07:36:09;20.20;99.90
58582;DHT22;44361;51.476;5.700;2023-07-22T07:38:35;20.10;99.90
58582;DHT22;44361;51.476;5.700;2023-07-22T07:41:05;20.30;99.90
58582;DHT22;44361;51.476;5.700;2023-07-22T07:43:40;20.30;99.90
58582;DHT22;44361;51.476;5.700;2023-07-22T07:46:28;20.20;99.90
58582;DHT22;44361;51.476;5.700;2023-07-22T07:48:55;20.10;99.90
58582;DHT22;44361;51.476;5.700;2023-07-22T07:51:22;19.70;99.90
58582;DHT22;44361;51.476;5.700;2023-07-22T07:53:49;19.70;99.90
58582;DHT22;44361;51.476;5.700;2023-07-22T07:56:16;19.70;99.90
58582;DHT22;44361;51.476;5.700;2023-07-22T07:58:42;19.80;99.90
58582;DHT22;44361;51.476;5.700;2023-07-22T08:01:08;19.80;99.90
58582;DHT22;44361;51.476;5.700;2023-07-22T08:03:35;19.90;99.90
58582;DHT22;44361;51.476;5.700;2023-07-22T08:06:02;19.90;99.90
58582;DHT22;44361;51.476;5.700;2023-07-22T08:08:27;19.90;99.90
58582;DHT22;44361;51.476;5.700;2023-07-22T08:13:25;20.00;99.90
58582;DHT22;44361;51.476;5.700;2023-07-22T08:15:52;20.10;99.90
58582;DHT22;44361;51.476;5.700;2023-07-22T08:18:17;20.20;99.90
58582;DHT22;44361;51.476;5.700;2023-07-22T08:20:43;20.40;99.90
58582;DHT22;44361;51.476;5.700;2023-07-22T08:23:08;20.70;99.90
58582;DHT22;44361;51.476;5.700;2023-07-22T08:29:08;20.90;99.90
58582;DHT22;44361;51.476;5.700;2023-07-22T08:31:33;20.80;99.90
58582;DHT22;44361;51.476;5.700;2023-07-22T08:33:59;20.80;99.90
58582;DHT22;44361;51.476;5.700;2023-07-22T08:36:24;20.90;99.90
58582;DHT22;44361;51.476;5.700;2023-07-22T08:38:50;21.10;99.90
58582;DHT22;44361;51.476;5.700;2023-07-22T08:41:15;21.20;99.90
58582;DHT22;44361;51.476;5.700;2023-07-22T08:43:45;21.30;99.90
58582;DHT22;44361;51.476;5.700;2023-07-22T08:46:12;21.20;99.90
58582;DHT22;44361;51.476;5.700;2023-07-22T08:48:41;21.40;99.90
58582;DHT22;44361;51.476;5.700;2023-07-22T08:51:15;21.50;99.90
58582;DHT22;44361;51.476;5.700;2023-07-22T08:53:43;21.40;99.90
58582;DHT22;44361;51.476;5.700;2023-07-22T08:56:09;21.60;99.90
58582;DHT22;44361;51.476;5.700;2023-07-22T08:58:36;21.70;99.90
58582;DHT22;44361;51.476;5.700;2023-07-22T09:01:02;22.10;99.90
58582;DHT22;44361;51.476;5.700;2023-07-22T09:03:28;22.60;99.90
58582;DHT22;44361;51.476;5.700;2023-07-22T09:05:54;22.70;99.90
58582;DHT22;44361;51.476;5.700;2023-07-22T09:08:20;22.60;99.90
58582;DHT22;44361;51.476;5.700;2023-07-22T09:10:46;22.90;99.50
58582;DHT22;44361;51.476;5.700;2023-07-22T09:13:13;22.80;98.80
58582;DHT22;44361;51.476;5.700;2023-07-22T09:15:40;22.90;98.60
58582;DHT22;44361;51.476;5.700;2023-07-22T09:18:06;23.00;98.80
58582;DHT22;44361;51.476;5.700;2023-07-22T09:20:32;23.30;98.20
58582;DHT22;44361;51.476;5.700;2023-07-22T09:22:59;23.30;98.20
58582;DHT22;44361;51.476;5.700;2023-07-22T09:25:26;23.60;96.90
58582;DHT22;44361;51.476;5.700;2023-07-22T09:27:58;24.10;96.40
58582;DHT22;44361;51.476;5.700;2023-07-22T09:30:27;24.00;96.00
58582;DHT22;44361;51.476;5.700;2023-07-22T09:32:55;24.10;96.60
58582;DHT22;44361;51.476;5.700;2023-07-22T09:35:21;23.60;96.00
58582;DHT22;44361;51.476;5.700;2023-07-22T09:37:47;23.40;96.30
58582;DHT22;44361;51.476;5.700;2023-07-22T09:40:24;23.50;96.50
58582;DHT22;44361;51.476;5.700;2023-07-22T09:42:55;23.80;95.90
58582;DHT22;44361;51.476;5.700;2023-07-22T09:45:25;23.80;95.50
58582;DHT22;44361;51.476;5.700;2023-07-22T09:47:52;24.20;95.80
58582;DHT22;44361;51.476;5.700;2023-07-22T09:50:19;24.60;94.10
58582;DHT22;44361;51.476;5.700;2023-07-22T09:52:52;24.90;94.40
58582;DHT22;44361;51.476;5.700;2023-07-22T09:55:23;24.80;94.10
58582;DHT22;44361;51.476;5.700;2023-07-22T09:58:09;24.70;94.40
58582;DHT22;44361;51.476;5.700;2023-07-22T10:00:36;24.20;93.20
58582;DHT22;44361;51.476;5.700;2023-07-22T10:03:03;24.50;93.60
58582;DHT22;44361;51.476;5.700;2023-07-22T10:05:34;24.70;92.20
58582;DHT22;44361;51.476;5.700;2023-07-22T10:08:01;23.90;92.40
58582;DHT22;44361;51.476;5.700;2023-07-22T10:10:33;23.50;93.00
58582;DHT22;44361;51.476;5.700;2023-07-22T10:12:59;23.40;93.20
58582;DHT22;44361;51.476;5.700;2023-07-22T10:15:33;23.30;93.90
58582;DHT22;44361;51.476;5.700;2023-07-22T10:18:01;23.40;94.10
58582;DHT22;44361;51.476;5.700;2023-07-22T10:20:29;23.40;93.20
58582;DHT22;44361;51.476;5.700;2023-07-22T10:22:55;23.20;93.30
58582;DHT22;44361;51.476;5.700;2023-07-22T10:25:22;23.10;93.10
58582;DHT22;44361;51.476;5.700;2023-07-22T10:27:48;23.30;93.10
58582;DHT22;44361;51.476;5.700;2023-07-22T10:30:16;23.70;93.70
58582;DHT22;44361;51.476;5.700;2023-07-22T10:32:45;23.30;92.90
58582;DHT22;44361;51.476;5.700;2023-07-22T10:35:13;22.80;93.20
58582;DHT22;44361;51.476;5.700;2023-07-22T10:37:45;22.30;94.10
58582;DHT22;44361;51.476;5.700;2023-07-22T10:42:52;21.50;94.80
58582;DHT22;44361;51.476;5.700;2023-07-22T10:45:28;21.70;95.00
58582;DHT22;44361;51.476;5.700;2023-07-22T10:48:27;22.00;95.30
58582;DHT22;44361;51.476;5.700;2023-07-22T10:50:57;22.80;94.70
58582;DHT22;44361;51.476;5.700;2023-07-22T10:56:20;24.00;92.10
58582;DHT22;44361;51.476;5.700;2023-07-22T11:01:31;24.10;90.80
58582;DHT22;44361;51.476;5.700;2023-07-22T11:07:04;24.00;91.50
58582;DHT22;44361;51.476;5.700;2023-07-22T11:16:57;24.20;90.30
58582;DHT22;44361;51.476;5.700;2023-07-22T11:19:24;24.70;90.50
58582;DHT22;44361;51.476;5.700;2023-07-22T11:21:52;24.80;89.80
58582;DHT22;44361;51.476;5.700;2023-07-22T11:24:18;24.60;86.90
58582;DHT22;44361;51.476;5.700;2023-07-22T11:26:46;24.20;88.10
58582;DHT22;44361;51.476;5.700;2023-07-22T11:29:12;24.20;86.70
58582;DHT22;44361;51.476;5.700;2023-07-22T11:31:42;24.20;85.90
58582;DHT22;44361;51.476;5.700;2023-07-22T11:34:19;24.70;82.90
58582;DHT22;44361;51.476;5.700;2023-07-22T11:36:46;24.80;84.00
58582;DHT22;44361;51.476;5.700;2023-07-22T11:39:15;24.80;84.90
58582;DHT22;44361;51.476;5.700;2023-07-22T11:41:42;24.80;83.30
58582;DHT22;44361;51.476;5.700;2023-07-22T11:44:09;24.70;82.70
58582;DHT22;44361;51.476;5.700;2023-07-22T11:46:57;24.30;84.10
58582;DHT22;44361;51.476;5.700;2023-07-22T11:49:35;24.30;83.80
58582;DHT22;44361;51.476;5.700;2023-07-22T11:52:06;24.40;84.20
58582;DHT22;44361;51.476;5.700;2023-07-22T11:54:40;24.00;83.50
58582;DHT22;44361;51.476;5.700;2023-07-22T11:57:22;23.90;83.10
58582;DHT22;44361;51.476;5.700;2023-07-22T11:59:53;23.80;84.10
58582;DHT22;44361;51.476;5.700;2023-07-22T12:02:24;23.90;84.60
58582;DHT22;44361;51.476;5.700;2023-07-22T12:07:38;24.60;84.70
58582;DHT22;44361;51.476;5.700;2023-07-22T12:10:08;25.00;82.60
58582;DHT22;44361;51.476;5.700;2023-07-22T12:15:21;25.40;80.00
58582;DHT22;44361;51.476;5.700;2023-07-22T12:17:55;25.40;79.10
58582;DHT22;44361;51.476;5.700;2023-07-22T12:20:32;25.50;79.00
58582;DHT22;44361;51.476;5.700;2023-07-22T12:22:58;25.50;77.40
58582;DHT22;44361;51.476;5.700;2023-07-22T12:25:24;25.50;76.70
58582;DHT22;44361;51.476;5.700;2023-07-22T12:27:50;25.50;77.70
58582;DHT22;44361;51.476;5.700;2023-07-22T12:30:16;25.20;77.70
58582;DHT22;44361;51.476;5.700;2023-07-22T12:32:42;25.10;77.30
58582;DHT22;44361;51.476;5.700;2023-07-22T12:35:08;25.00;78.70
58582;DHT22;44361;51.476;5.700;2023-07-22T12:37:34;25.10;79.30
58582;DHT22;44361;51.476;5.700;2023-07-22T12:40:00;25.00;79.00
58582;DHT22;44361;51.476;5.700;2023-07-22T12:42:25;25.00;77.40
58582;DHT22;44361;51.476;5.700;2023-07-22T12:44:52;25.00;78.20
58582;DHT22;44361;51.476;5.700;2023-07-22T12:47:17;24.90;77.70
58582;DHT22;44361;51.476;5.700;2023-07-22T12:49:43;25.40;77.90
58582;DHT22;44361;51.476;5.700;2023-07-22T12:52:09;25.40;76.90
58582;DHT22;44361;51.476;5.700;2023-07-22T12:54:38;25.60;76.90
58582;DHT22;44361;51.476;5.700;2023-07-22T12:57:04;25.60;76.60
58582;DHT22;44361;51.476;5.700;2023-07-22T12:59:30;25.20;75.80
58582;DHT22;44361;51.476;5.700;2023-07-22T13:01:56;25.20;76.50
58582;DHT22;44361;51.476;5.700;2023-07-22T13:04:23;25.20;77.10
58582;DHT22;44361;51.476;5.700;2023-07-22T13:06:50;25.20;76.30
58582;DHT22;44361;51.476;5.700;2023-07-22T13:09:17;25.40;75.80
58582;DHT22;44361;51.476;5.700;2023-07-22T13:11:42;25.30;75.30
58582;DHT22;44361;51.476;5.700;2023-07-22T13:14:08;25.40;74.30
58582;DHT22;44361;51.476;5.700;2023-07-22T13:16:33;25.40;74.90
58582;DHT22;44361;51.476;5.700;2023-07-22T13:18:59;25.80;73.80
58582;DHT22;44361;51.476;5.700;2023-07-22T13:21:26;26.10;72.10
58582;DHT22;44361;51.476;5.700;2023-07-22T13:23:52;26.10;73.40
58582;DHT22;44361;51.476;5.700;2023-07-22T13:26:17;26.60;73.80
58582;DHT22;44361;51.476;5.700;2023-07-22T13:28:43;26.90;70.80
58582;DHT22;44361;51.476;5.700;2023-07-22T13:31:08;26.50;70.60
58582;DHT22;44361;51.476;5.700;2023-07-22T13:33:34;26.50;72.40
58582;DHT22;44361;51.476;5.700;2023-07-22T13:35:59;26.30;71.60
58582;DHT22;44361;51.476;5.700;2023-07-22T13:38:25;25.90;70.60
58582;DHT22;44361;51.476;5.700;2023-07-22T13:40:51;25.70;70.90
58582;DHT22;44361;51.476;5.700;2023-07-22T13:43:16;25.60;71.10
58582;DHT22;44361;51.476;5.700;2023-07-22T13:45:42;25.70;71.20
58582;DHT22;44361;51.476;5.700;2023-07-22T13:48:07;25.60;71.70
58582;DHT22;44361;51.476;5.700;2023-07-22T13:50:33;25.60;71.40
58582;DHT22;44361;51.476;5.700;2023-07-22T13:52:59;25.50;71.00
58582;DHT22;44361;51.476;5.700;2023-07-22T13:55:24;25.40;70.80
58582;DHT22;44361;51.476;5.700;2023-07-22T13:57:50;25.40;71.60
58582;DHT22;44361;51.476;5.700;2023-07-22T14:00:15;25.70;70.50
58582;DHT22;44361;51.476;5.700;2023-07-22T14:02:41;25.90;68.10
58582;DHT22;44361;51.476;5.700;2023-07-22T14:05:07;25.80;68.10
58582;DHT22;44361;51.476;5.700;2023-07-22T14:07:34;25.50;67.50
58582;DHT22;44361;51.476;5.700;2023-07-22T14:10:00;25.30;68.80
58582;DHT22;44361;51.476;5.700;2023-07-22T14:12:26;25.40;69.50
58582;DHT22;44361;51.476;5.700;2023-07-22T14:14:51;25.20;69.60
58582;DHT22;44361;51.476;5.700;2023-07-22T14:17:17;25.40;68.70
58582;DHT22;44361;51.476;5.700;2023-07-22T14:19:42;25.70;65.10
58582;DHT22;44361;51.476;5.700;2023-07-22T14:22:08;25.50;65.60
58582;DHT22;44361;51.476;5.700;2023-07-22T14:24:35;25.40;66.20
58582;DHT22;44361;51.476;5.700;2023-07-22T14:27:01;25.40;67.00
58582;DHT22;44361;51.476;5.700;2023-07-22T14:29:26;25.70;66.10
58582;DHT22;44361;51.476;5.700;2023-07-22T14:31:52;25.50;66.20
58582;DHT22;44361;51.476;5.700;2023-07-22T14:34:17;25.20;66.90
58582;DHT22;44361;51.476;5.700;2023-07-22T14:36:43;24.90;67.40
58582;DHT22;44361;51.476;5.700;2023-07-22T14:39:09;25.40;67.90
58582;DHT22;44361;51.476;5.700;2023-07-22T14:41:35;25.80;66.50
58582;DHT22;44361;51.476;5.700;2023-07-22T14:44:00;25.70;66.70
58582;DHT22;44361;51.476;5.700;2023-07-22T14:46:26;25.70;66.60
58582;DHT22;44361;51.476;5.700;2023-07-22T14:48:51;25.80;67.50
58582;DHT22;44361;51.476;5.700;2023-07-22T14:51:17;25.70;67.00
58582;DHT22;44361;51.476;5.700;2023-07-22T14:53:42;25.60;66.50
58582;DHT22;44361;51.476;5.700;2023-07-22T14:56:08;25.30;67.30
58582;DHT22;44361;51.476;5.700;2023-07-22T14:58:33;25.20;67.00
58582;DHT22;44361;51.476;5.700;2023-07-22T15:00:59;25.20;67.10
58582;DHT22;44361;51.476;5.700;2023-07-22T15:03:24;25.40;66.70
58582;DHT22;44361;51.476;5.700;2023-07-22T15:05:50;25.30;65.20
58582;DHT22;44361;51.476;5.700;2023-07-22T15:08:16;24.90;65.80
58582;DHT22;44361;51.476;5.700;2023-07-22T15:10:41;25.00;66.90
58582;DHT22;44361;51.476;5.700;2023-07-22T15:13:07;24.90;66.00
58582;DHT22;44361;51.476;5.700;2023-07-22T15:15:32;24.80;65.90
58582;DHT22;44361;51.476;5.700;2023-07-22T15:17:58;24.80;65.70
58582;DHT22;44361;51.476;5.700;2023-07-22T15:20:24;24.60;65.60
58582;DHT22;44361;51.476;5.700;2023-07-22T15:22:49;24.50;66.20
58582;DHT22;44361;51.476;5.700;2023-07-22T15:25:15;24.20;67.00
58582;DHT22;44361;51.476;5.700;2023-07-22T15:27:40;24.20;66.40
58582;DHT22;44361;51.476;5.700;2023-07-22T15:30:06;24.00;66.70
58582;DHT22;44361;51.476;5.700;2023-07-22T15:32:32;24.10;66.90
58582;DHT22;44361;51.476;5.700;2023-07-22T15:34:58;24.00;66.90
58582;DHT22;44361;51.476;5.700;2023-07-22T15:37:23;24.40;68.20
58582;DHT22;44361;51.476;5.700;2023-07-22T15:39:50;24.50;67.70
58582;DHT22;44361;51.476;5.700;2023-07-22T15:42:19;24.50;66.70
58582;DHT22;44361;51.476;5.700;2023-07-22T15:44:44;24.50;67.40
58582;DHT22;44361;51.476;5.700;2023-07-22T15:47:10;24.40;66.80
58582;DHT22;44361;51.476;5.700;2023-07-22T15:49:35;24.20;67.00
58582;DHT22;44361;51.476;5.700;2023-07-22T15:52:01;24.10;67.20
58582;DHT22;44361;51.476;5.700;2023-07-22T15:54:27;24.00;67.80
58582;DHT22;44361;51.476;5.700;2023-07-22T15:56:53;23.90;68.00